Terminal Aerodrome Forecast
Issued by NWS Albany, NY

Home | Current Version | Previous Version | Text Only | Print | Product List | Glossary On
Versions: 1 2 3 4 5 6 7 8 9 10 11 12 13 14 15 16
000
FTUS41 KALY 252320
TAFALB
TAF
KALB 252320Z 2600/2624 19004KT P6SM VCSH BKN035
     FM260600 19003KT 6SM BR VCSH BKN020
     FM261100 20004KT 4SM BR VCSH BKN015
     FM261700 31007KT P6SM FEW030 SCT100 BKN170=

USA.gov is the U.S. government's official web portal to all federal, state and local government web resources and services.